Lynn, Wisconsin
Current Conditions -  °F | °C
As of 9:54 AM on Saturday 22 Nov 2014 (Local Time) from KMFI Reporting Station
Moderate Fog Moderate Fog  
Wind Chill: 27°   Ceiling: 100
Heat Index: 34°   Visibility: 0.25mi
Dew Point: 33°   Wind: 8mph
Humidity: 96%   Direction: 210°SSW
Pressure: 29.79"   Gusts: NA
Location:  44.5388°N, 90.4382°W
Report Text: KMFI 221554Z AUTO 21007KT 1/4SM FG OVC001 01/01 A2979 RMK AO2 SLP105 T00110006
Loading
Personal Weather Stations






























Interactive Weather Map New forecast layout! Learn more

10-Day Weather Forecast

Advertisements
Track Severe Weather on mobile